Latest Weather Observations for Mildura

IDV60801

Issued at 9:32 am EST Saturday 25 June 2016 (issued every 30 minutes, with the page automatically refreshed every 10 minutes)

About weather observations | Map of weather stations | Latest weather observations for VIC | Other Formats
Station Details ID: 076031 Name: MILDURA AIRPORT Lat: -34.24 Lon: 142.09 Height: 50.0 m
Data from the previous 72 hours. | See also: Recent months at Mildura
Date/Time
EST
Temp
°C
App
Temp
°C
Dew
Point
°C
Rel
Hum
%
Delta-T
°C
Wind Press
QNH
hPa
Press
MSL
hPa
Rain since
9am
mm
Dir  Spd
km/h
Gust
km/h
Spd
kts
Gust
kts
25/09:30am 4.6 2.1 4.5 99 0.0 W 7 9 4 5 1026.0 1026.1 0.0
25/09:00am 3.4 0.2 3.3 99 0.0 W 9 13 5 7 1025.8 1025.9 0.8
25/08:56am 3.2 0.4 3.1 99 0.0 W 7 13 4 7 1025.8 1025.9 0.8
25/08:41am 2.0 0.3 1.9 99 0.0 CALM 0 0 0 0 1025.7 1025.8 0.8
25/08:30am 1.6 -0.5 1.5 99 0.0 NNW 2 6 1 3 1025.6 1025.7 0.8
25/08:00am 0.5 -1.4 0.4 99 0.0 CALM 0 0 0 0 1025.4 1025.5 0.8
25/07:43am 0.1 -2.3 0.0 99 0.0 NNW 2 6 1 3 1025.2 1025.3 0.8
25/07:30am 0.2 -1.8 0.1 99 0.0 CALM 0 0 0 0 1025.1 1025.2 0.8
25/07:00am 0.9 -2.1 0.8 99 0.0 WNW 6 7 3 4 1025.0 1025.1 0.8
25/06:30am 1.4 -1.7 1.3 99 0.0 W 7 9 4 5 1024.5 1024.6 0.8
25/06:00am 1.3 -1.8 1.2 99 0.0 W 7 9 4 5 1024.4 1024.5 0.8
25/05:56am 1.0 -2.2 0.9 99 0.0 WNW 7 9 4 5 1024.4 1024.5 0.8
25/05:30am 0.6 -1.3 0.5 99 0.0 CALM 0 0 0 0 1024.2 1024.3 0.8
25/05:00am 0.9 -1.0 0.8 99 0.0 CALM 0 4 0 2 1024.0 1024.1 0.8
25/04:30am 1.7 -1.4 1.6 99 0.0 W 7 9 4 5 1023.8 1023.8 0.8
25/04:00am 2.3 -0.7 2.2 99 0.0 W 7 9 4 5 1023.6 1023.6 0.8
25/03:30am 1.6 -1.5 1.5 99 0.0 WSW 7 9 4 5 1023.4 1023.4 0.8
25/03:00am 2.0 -0.9 1.7 98 0.1 WSW 6 6 3 3 1023.3 1023.3 0.8
25/02:30am 2.9 -0.3 2.8 99 0.0 WSW 9 9 5 5 1023.3 1023.3 0.8
25/02:00am 2.9 -0.4 2.6 98 0.1 WSW 9 11 5 6 1023.3 1023.3 0.8
25/01:30am 2.8 -0.5 2.5 98 0.1 W 9 11 5 6 1023.1 1023.1 0.8
25/01:00am 2.9 0.0 2.5 97 0.2 WSW 7 11 4 6 1023.0 1023.0 0.8
25/12:30am 3.2 0.3 2.8 97 0.2 WSW 7 11 4 6 1023.1 1023.1 0.8
25/12:00am 3.3 0.4 2.7 96 0.2 WSW 7 9 4 5 1023.0 1023.0 0.8
 
Date/Time
EST
Temp
°C
App
Temp
°C
Dew
Point
°C
Rel
Hum
%
Delta-T
°C
Wind Press
QNH
hPa
Press
MSL
hPa
Rain since
9am
mm
Dir  Spd
km/h
Gust
km/h
Spd
kts
Gust
kts
24/11:30pm 3.6 0.4 2.9 95 0.3 W 9 11 5 6 1022.9 1022.9 0.8
24/11:00pm 4.2 1.0 3.2 93 0.4 W 9 11 5 6 1022.8 1022.8 0.8
24/10:30pm 4.8 2.0 3.3 90 0.6 WSW 7 11 4 6 1022.7 1022.7 0.8
24/10:00pm 5.8 2.8 4.3 90 0.6 WSW 9 13 5 7 1022.4 1022.4 0.8
24/09:30pm 5.6 2.2 4.2 91 0.6 WSW 11 17 6 9 1022.2 1022.2 0.8
24/09:00pm 5.2 2.1 3.5 89 0.7 WSW 9 13 5 7 1021.8 1021.8 0.8
24/08:30pm 5.8 2.7 3.5 85 1.0 WSW 9 13 5 7 1021.3 1021.3 0.8
24/08:00pm 7.0 3.9 3.8 80 1.4 WSW 9 13 5 7 1020.8 1020.8 0.8
24/07:30pm 8.0 4.2 3.7 74 1.9 SW 13 19 7 10 1020.2 1020.2 0.8
24/07:00pm 8.5 5.0 3.6 71 2.1 SW 11 19 6 10 1019.7 1019.7 0.8
24/06:30pm 9.1 4.4 3.3 67 2.5 WSW 17 22 9 12 1019.2 1019.2 0.8
24/06:00pm 9.1 4.8 3.5 68 2.4 WSW 15 24 8 13 1018.6 1018.6 0.8
24/05:30pm 9.9 5.2 3.0 62 3.0 SW 17 32 9 17 1017.8 1017.8 0.8
24/05:00pm 10.6 6.0 3.6 62 3.1 SW 17 24 9 13 1017.5 1017.6 0.8
24/04:30pm 11.2 7.1 4.4 63 3.1 SW 15 24 8 13 1016.9 1017.0 0.8
24/04:00pm 11.1 7.0 4.1 62 3.1 SW 15 24 8 13 1016.4 1016.5 0.8
24/03:30pm 10.0 5.9 4.6 69 2.4 SSW 15 24 8 13 1016.1 1016.2 0.8
24/03:00pm 8.2 2.5 5.0 80 1.4 SSW 24 41 13 22 1016.1 1016.2 0.8
24/02:30pm 10.4 5.4 4.8 68 2.5 SW 20 35 11 19 1015.3 1015.4 0.8
24/02:00pm 9.1 4.7 6.4 83 1.2 SW 19 32 10 17 1015.4 1015.5 0.8
24/01:52pm 8.5 3.5 6.5 87 0.9 SW 22 39 12 21 1015.4 1015.5 0.8
24/01:34pm 7.8 1.0 4.9 82 1.3 SW 30 52 16 28 1015.4 1015.5 0.4
24/01:30pm 9.8 3.1 3.8 66 2.6 SW 28 52 15 28 1015.4 1015.5 0.0
24/01:00pm 10.6 5.3 2.9 59 3.3 SW 20 35 11 19 1014.8 1014.9 0.0
24/12:30pm 10.2 5.0 3.7 64 2.9 SW 20 33 11 18 1014.8 1014.9 0.0
24/12:00pm 10.0 3.8 4.2 67 2.6 WSW 26 41 14 22 1014.7 1014.8 0.0
24/11:30am 9.4 3.2 4.4 71 2.2 WSW 26 41 14 22 1014.5 1014.6 0.0
24/11:00am 9.4 3.1 4.0 69 2.4 WSW 26 41 14 22 1014.2 1014.3 0.0
24/10:30am 9.6 3.9 5.0 73 2.1 WSW 24 35 13 19 1013.6 1013.7 0.0
24/10:00am 8.9 4.3 5.5 79 1.5 W 19 32 10 17 1013.1 1013.2 0.0
24/09:30am 7.6 3.3 5.2 85 1.1 W 17 28 9 15 1012.9 1013.0 0.0
24/09:00am 6.9 2.6 5.1 88 0.8 W 17 24 9 13 1012.3 1012.4 5.4
24/08:30am 6.7 1.9 4.9 88 0.8 W 19 24 10 13 1011.3 1011.4 5.4
24/08:00am 6.4 1.6 4.7 89 0.7 W 19 28 10 15 1010.5 1010.6 5.4
24/07:30am 6.8 2.1 5.1 89 0.7 W 19 28 10 15 1009.9 1010.0 5.4
24/07:00am 7.4 2.8 5.7 89 0.8 W 19 30 10 16 1009.2 1009.3 5.4
24/06:30am 7.8 2.3 5.9 88 0.9 W 24 37 13 20 1008.6 1008.7 5.4
24/06:00am 7.8 2.3 5.8 87 0.9 WNW 24 35 13 19 1007.8 1007.9 5.4
24/05:30am 7.8 2.6 5.6 86 1.0 WNW 22 35 12 19 1007.3 1007.3 5.4
24/05:00am 6.8 2.9 5.4 91 0.6 WNW 15 20 8 11 1007.2 1007.2 5.4
24/04:30am 6.7 3.2 5.3 91 0.6 WNW 13 22 7 12 1006.8 1006.8 5.4
24/04:00am 7.1 3.3 5.6 90 0.7 WNW 15 20 8 11 1006.8 1006.8 5.4
24/03:30am 7.2 3.1 6.0 92 0.5 WNW 17 22 9 12 1006.9 1006.9 5.4
24/03:00am 7.4 3.7 6.2 92 0.5 WNW 15 22 8 12 1006.9 1006.9 5.4
24/02:30am 7.6 3.5 6.2 91 0.6 WNW 17 26 9 14 1006.6 1006.6 5.4
24/02:00am 7.5 3.9 6.8 95 0.3 WNW 15 20 8 11 1006.5 1006.5 5.4
24/01:30am 7.1 3.8 6.4 95 0.3 NW 13 19 7 10 1006.3 1006.3 5.4
24/01:00am 7.3 4.4 6.4 94 0.4 NW 11 19 6 10 1006.2 1006.2 5.4
24/12:30am 7.5 3.9 6.6 94 0.4 NW 15 24 8 13 1006.3 1006.3 5.4
24/12:00am 7.2 3.9 6.3 94 0.4 NW 13 20 7 11 1006.1 1006.1 5.2
 
Date/Time
EST
Temp
°C
App
Temp
°C
Dew
Point
°C
Rel
Hum
%
Delta-T
°C
Wind Press
QNH
hPa
Press
MSL
hPa
Rain since
9am
mm
Dir  Spd
km/h
Gust
km/h
Spd
kts
Gust
kts
23/11:30pm 7.5 3.8 6.1 91 0.6 NW 15 22 8 12 1006.0 1006.0 5.2
23/11:00pm 7.4 4.5 6.3 93 0.5 NW 11 17 6 9 1005.9 1005.9 5.2
23/10:30pm 7.8 4.5 6.3 90 0.7 NW 13 19 7 10 1005.8 1005.8 5.2
23/10:00pm 8.0 4.8 6.9 93 0.5 NNW 13 24 7 13 1005.8 1005.8 5.2
23/09:39pm 7.9 6.1 7.0 94 0.4 NNW 6 7 3 4 1005.7 1005.7 5.2
23/09:30pm 7.8 5.8 6.9 94 0.4 NNW 7 11 4 6 1005.7 1005.7 5.2
23/09:21pm 7.9 6.0 6.8 93 0.5 W 6 9 3 5 1005.8 1005.8 5.0
23/09:00pm 7.8 5.3 6.6 92 0.6 WSW 9 13 5 7 1005.8 1005.8 4.6
23/08:30pm 8.0 3.5 6.3 89 0.8 SW 19 28 10 15 1005.8 1005.8 4.4
23/08:18pm 8.2 2.8 6.5 89 0.8 SW 24 37 13 20 1006.1 1006.1 4.2
23/08:08pm 8.5 2.1 7.0 90 0.7 SW 30 50 16 27 1006.2 1006.2 4.0
23/08:04pm 8.7 2.8 7.3 91 0.7 WSW 28 50 15 27 1006.1 1006.1 3.8
23/08:00pm 9.4 5.3 8.6 95 0.4 SW 20 39 11 21 1005.8 1005.8 3.8
23/07:32pm 9.5 6.0 8.7 95 0.4 WSW 17 28 9 15 1005.3 1005.3 2.0
23/07:30pm 9.6 6.1 8.8 95 0.4 WSW 17 28 9 15 1005.2 1005.2 2.0
23/07:15pm 10.5 6.7 9.7 95 0.4 WSW 20 30 11 16 1004.5 1004.5 1.2
23/07:14pm 10.5 6.7 9.7 95 0.4 WSW 20 32 11 17 1004.4 1004.4 1.2
23/07:00pm 10.6 6.4 9.8 95 0.4 WSW 22 39 12 21 1004.5 1004.5 0.6
23/06:44pm 10.9 5.6 9.7 92 0.6 SW 28 46 15 25 1004.1 1004.1 0.2
23/06:30pm 13.0 8.1 7.0 67 2.9 W 22 44 12 24 1003.5 1003.5 0.0
23/06:00pm 14.4 10.0 4.7 52 4.5 NW 17 24 9 13 1002.0 1002.0 0.0
23/05:30pm 14.7 9.7 4.4 50 4.8 NNW 20 28 11 15 1001.9 1001.9 0.0
23/05:00pm 15.4 9.1 3.9 46 5.3 NW 26 43 14 23 1002.0 1002.0 0.0
23/04:30pm 15.9 10.0 3.7 44 5.6 NW 24 41 13 22 1002.1 1002.1 0.0
23/04:00pm 16.3 9.6 3.7 43 5.9 NW 28 41 15 22 1002.4 1002.4 0.0
23/03:30pm 16.0 9.9 4.7 47 5.3 WNW 26 39 14 21 1003.0 1003.0 0.0
23/03:00pm 16.5 9.3 4.9 46 5.5 NW 32 44 17 24 1002.9 1002.9 0.0
23/02:30pm 17.0 10.6 5.3 46 5.6 NW 28 43 15 23 1003.0 1003.0 0.0
23/02:27pm 17.2 10.8 5.2 45 5.8 NW 28 46 15 25 1003.1 1003.1 0.0
23/02:00pm 15.8 8.9 4.8 48 5.2 NW 30 44 16 24 1003.6 1003.6 0.0
23/01:32pm 16.0 8.7 4.4 46 5.4 NW 32 50 17 27 1004.2 1004.2 0.0
23/01:30pm 16.0 8.8 5.0 48 5.2 NW 32 44 17 24 1004.2 1004.2 0.0
23/01:00pm 16.1 8.8 5.4 49 5.1 NW 33 52 18 28 1004.8 1004.8 0.0
23/12:33pm 15.6 8.9 5.5 51 4.8 NW 30 50 16 27 1005.4 1005.4 0.0
23/12:30pm 15.3 8.5 5.2 51 4.8 NW 30 44 16 24 1005.5 1005.5 0.0
23/12:00pm 15.4 7.8 5.6 52 4.7 NW 35 50 19 27 1006.1 1006.1 0.0
23/11:51am 14.7 8.2 4.7 51 4.7 NW 28 50 15 27 1006.5 1006.5 0.0
23/11:30am 15.1 8.5 6.1 55 4.3 NW 30 43 16 23 1006.7 1006.7 0.0
23/11:00am 14.3 8.8 5.7 56 4.1 NW 24 41 13 22 1007.3 1007.3 0.0
23/10:30am 12.5 7.9 6.3 66 2.9 NNW 20 33 11 18 1007.7 1007.8 0.0
23/10:00am 11.5 7.4 6.0 69 2.6 NNW 17 28 9 15 1007.9 1008.0 0.0
23/09:30am 10.6 6.5 6.4 75 2.0 NNW 17 28 9 15 1008.1 1008.2 0.0
23/09:00am 9.6 5.6 6.5 81 1.4 NNW 17 26 9 14 1008.6 1008.7 0.0
23/08:30am 8.6 4.9 6.4 86 1.0 NNW 15 22 8 12 1008.8 1008.9 0.0
23/08:00am 7.4 4.0 5.9 90 0.7 NNW 13 19 7 10 1008.9 1009.0 0.0
23/07:30am 7.4 4.0 6.0 91 0.6 NNW 13 19 7 10 1008.7 1008.8 0.0
23/07:00am 7.6 4.2 6.1 90 0.7 NNW 13 19 7 10 1008.9 1009.0 0.0
23/06:30am 7.4 4.1 6.2 92 0.5 NNW 13 20 7 11 1008.7 1008.8 0.0
23/06:00am 7.5 4.2 6.3 92 0.5 N 13 20 7 11 1008.6 1008.7 0.0
23/05:30am 7.6 4.3 6.5 93 0.5 NNW 13 20 7 11 1008.7 1008.8 0.0
23/05:00am 7.7 4.4 6.5 92 0.6 NNW 13 19 7 10 1009.0 1009.1 0.0
23/04:30am 7.3 4.3 6.2 93 0.5 N 11 13 6 7 1009.3 1009.4 0.0
23/04:00am 7.3 4.7 6.1 92 0.5 N 9 13 5 7 1009.6 1009.7 0.0
23/03:30am 7.7 5.5 6.2 90 0.7 NNW 7 9 4 5 1009.8 1009.9 0.0
23/03:00am 8.1 5.9 6.2 88 0.9 NNW 7 11 4 6 1010.1 1010.2 0.0
23/02:30am 8.6 6.1 6.4 86 1.0 NNW 9 13 5 7 1010.4 1010.5 0.0
23/02:00am 8.8 5.9 6.4 85 1.1 NW 11 15 6 8 1010.9 1011.0 0.0
23/01:30am 9.4 6.1 6.3 81 1.4 NNW 13 20 7 11 1011.1 1011.2 0.0
23/01:00am 9.6 6.6 6.1 79 1.6 NNW 11 15 6 8 1011.0 1011.1 0.0
23/12:30am 10.2 7.2 6.2 76 1.9 NNW 11 17 6 9 1011.4 1011.5 0.0
23/12:00am 10.6 7.3 6.4 75 2.0 NNW 13 19 7 10 1011.5 1011.6 0.0
 
Date/Time
EST
Temp
°C
App
Temp
°C
Dew
Point
°C
Rel
Hum
%
Delta-T
°C
Wind Press
QNH
hPa
Press
MSL
hPa
Rain since
9am
mm
Dir  Spd
km/h
Gust
km/h
Spd
kts
Gust
kts
22/11:30pm 11.1 8.2 6.5 73 2.2 NNW 11 17 6 9 1011.6 1011.7 0.0
22/11:00pm 11.6 8.3 6.5 71 2.4 NNW 13 19 7 10 1011.8 1011.9 0.0
22/10:30pm 12.0 8.8 6.7 70 2.5 NW 13 19 7 10 1011.8 1011.9 0.0
22/10:00pm 12.3 9.0 6.6 68 2.7 NNW 13 19 7 10 1012.2 1012.3 0.0
22/09:30pm 12.0 9.1 6.7 70 2.5 NNW 11 15 6 8 1012.1 1012.2 0.0
22/09:00pm 11.8 8.9 6.7 71 2.4 NNW 11 17 6 9 1011.8 1011.9 0.0
22/08:30pm 11.8 9.3 6.7 71 2.4 NNW 9 13 5 7 1011.9 1012.0 0.0
22/08:00pm 12.0 9.1 6.5 69 2.6 NNW 11 17 6 9 1011.8 1011.9 0.0
22/07:30pm 11.9 9.3 6.2 68 2.7 N 9 11 5 6 1011.5 1011.6 0.0
22/07:00pm 13.3 10.7 6.2 62 3.4 NNW 9 13 5 7 1011.5 1011.6 0.0
22/06:30pm 13.0 10.8 6.4 64 3.2 NNW 7 11 4 6 1011.4 1011.5 0.0
22/06:00pm 13.3 11.1 6.4 63 3.3 NW 7 11 4 6 1011.3 1011.4 0.0
22/05:30pm 13.8 11.3 6.4 61 3.6 NW 9 11 5 6 1011.2 1011.3 0.0
22/05:00pm 14.6 11.3 6.2 57 4.0 WNW 13 19 7 10 1011.2 1011.3 0.0
22/04:30pm 14.9 11.2 6.5 57 4.1 WNW 15 28 8 15 1011.3 1011.4 0.0
22/04:00pm 15.5 10.9 6.5 55 4.4 WNW 20 32 11 17 1010.9 1011.0 0.0
22/03:30pm 15.7 11.4 7.2 57 4.2 WNW 19 30 10 16 1010.8 1010.9 0.0
22/03:00pm 15.0 10.9 6.3 56 4.2 W 17 26 9 14 1010.6 1010.7 0.0
22/02:30pm 16.1 12.2 7.3 56 4.4 WNW 17 26 9 14 1010.6 1010.7 0.0
22/02:00pm 15.7 11.4 7.0 56 4.3 WNW 19 30 10 16 1010.4 1010.5 0.0
22/01:30pm 15.1 10.6 6.9 58 4.0 WNW 20 28 11 15 1010.8 1010.9 0.0
22/01:00pm 15.2 11.2 8.2 63 3.5 WNW 19 30 10 16 1011.0 1011.1 0.0
22/12:30pm 14.7 10.7 9.1 69 2.9 WNW 20 28 11 15 1011.3 1011.4 0.0
22/12:00pm 14.2 10.1 8.8 70 2.7 W 20 28 11 15 1011.6 1011.7 0.0
22/11:30am 13.9 10.1 9.1 73 2.4 W 19 28 10 15 1011.9 1012.0 0.0
22/11:00am 13.0 9.2 9.1 77 2.0 WNW 19 32 10 17 1011.9 1012.0 0.0
22/10:30am 12.3 8.4 8.8 79 1.8 WNW 19 28 10 15 1011.9 1012.0 0.0
22/10:00am 11.6 8.2 9.0 84 1.3 WNW 17 28 9 15 1011.7 1011.8 0.0

Other Formats:

Comma delimited format used in spreadsheet applications
http://www.bom.gov.au/fwo/IDV60801/IDV60801.94693.axf

JavaScript Object Notation format (JSON) in row-major order
http://www.bom.gov.au/fwo/IDV60801/IDV60801.94693.json